Moriarty, New Mexico
Current Conditions -  °F | °C
As of 8:55 AM on Friday 31 Oct 2014 (Local Time) from K0E0 Reporting Station
Clear Clear  
Wind Chill: 40°   Ceiling: Unl
Heat Index: 40°   Visibility: 10mi
Dew Point: 24°   Wind: 3mph
Humidity: 53%   Direction: 320°NW
Pressure: 30.47"   Gusts: NA
Location:  34.99°N, 106.05°W
Report Text: K0E0 311455Z AUTO 32003KT 10SM CLR 05/M04 A3047 RMK AO2 T00461043
Loading
Personal Weather Stations






























Interactive Weather Map
Tropical Storm Tracking
New forecast layout! Learn more

10-Day Weather Forecast

Advertisements
Track Severe Weather on mobile